Time;durP1;ratioP1;P1;durP2;ratioP2;P2;SDS_P1;SDS_P2;PMS_P1;PMS_P2;Temp;Humidity;BMP_temperature;BMP_pressure;BME280_temperature;BME280_humidity;BME280_pressure;Samples;Min_cycle;Max_cycle;Signal;HPM_P1;HPM_P2
2022/08/27 00:01:47;;;;;;;1057.20;967.70;;;23.60;99.90;;;;;;5030515;28;20536;-82
2022/08/27 00:04:14;;;;;;;1065.10;975.22;;;23.60;99.90;;;;;;5033222;28;20214;-77
2022/08/27 00:06:40;;;;;;;1061.32;971.97;;;23.60;99.90;;;;;;5024736;28;20192;-83
2022/08/27 00:09:07;;;;;;;1062.93;973.33;;;23.60;99.90;;;;;;5035039;28;20195;-84
2022/08/27 00:11:35;;;;;;;1057.30;967.72;;;23.60;99.90;;;;;;5033247;28;20208;-84
2022/08/27 00:14:04;;;;;;;1051.55;962.22;;;23.60;99.90;;;;;;5030157;28;20738;-81
2022/08/27 00:16:32;;;;;;;1056.47;967.10;;;23.60;99.90;;;;;;5031773;28;20200;-82
2022/08/27 00:18:58;;;;;;;1058.13;968.58;;;23.50;99.90;;;;;;5032418;28;20612;-81
2022/08/27 00:21:25;;;;;;;1061.70;971.88;;;23.50;99.90;;;;;;5028515;28;20210;-80
2022/08/27 00:23:52;;;;;;;1058.95;969.35;;;23.50;99.90;;;;;;5029985;28;20200;-79
2022/08/27 00:26:19;;;;;;;1046.90;957.58;;;23.50;99.90;;;;;;5031717;28;20195;-80
2022/08/27 00:28:48;;;;;;;1061.53;971.72;;;23.50;99.90;;;;;;5030852;28;20196;-80
2022/08/27 00:31:14;;;;;;;1056.65;966.92;;;23.50;99.90;;;;;;5029651;28;20200;-80
2022/08/27 00:33:42;;;;;;;1049.80;960.42;;;23.50;99.90;;;;;;5031583;28;20575;-80
2022/08/27 00:36:10;;;;;;;1053.32;963.92;;;23.50;99.90;;;;;;5025388;28;20191;-79
2022/08/27 00:38:37;;;;;;;1042.43;953.25;;;23.40;99.90;;;;;;5031386;28;20215;-79
2022/08/27 00:41:05;;;;;;;1043.13;953.85;;;23.40;99.90;;;;;;5032728;28;20202;-81
2022/08/27 00:43:45;;;;;;;1052.10;962.78;;;23.40;99.90;;;;;;5025867;28;20192;-79
2022/08/27 00:46:20;;;;;;;1044.93;955.67;;;23.40;99.90;;;;;;5024890;28;20689;-78
2022/08/27 00:48:48;;;;;;;1045.30;955.95;;;23.40;99.90;;;;;;5032751;28;20195;-79
2022/08/27 00:51:15;;;;;;;1059.93;970.05;;;23.40;99.90;;;;;;5022669;28;20249;-80
2022/08/27 00:53:42;;;;;;;1038.43;949.45;;;23.40;99.90;;;;;;5031931;28;20578;-79
2022/08/27 00:56:14;;;;;;;1034.15;945.50;;;23.40;99.90;;;;;;5032640;28;20199;-80
2022/08/27 00:58:44;;;;;;;1042.80;953.67;;;23.30;99.90;;;;;;5023025;28;20234;-81
2022/08/27 01:01:16;;;;;;;1049.45;959.75;;;23.30;99.90;;;;;;5029194;28;20207;-83
2022/08/27 01:03:45;;;;;;;1060.57;970.88;;;23.30;99.90;;;;;;5031133;28;20555;-81
2022/08/27 01:06:14;;;;;;;1051.85;962.05;;;23.30;99.90;;;;;;5029680;28;20203;-79
2022/08/27 01:08:45;;;;;;;1041.50;952.20;;;23.30;99.90;;;;;;5030555;28;20188;-79
2022/08/27 01:11:12;;;;;;;1047.18;957.80;;;23.30;99.90;;;;;;5027169;28;20219;-80
2022/08/27 01:13:39;;;;;;;1061.28;971.08;;;23.30;99.90;;;;;;5024452;28;20192;-79
2022/08/27 01:16:09;;;;;;;1071.30;980.63;;;23.30;99.90;;;;;;5027983;28;20241;-81
2022/08/27 01:18:38;;;;;;;1045.68;956.10;;;23.30;99.90;;;;;;5028035;28;20223;-79
2022/08/27 01:21:20;;;;;;;1053.70;963.80;;;23.20;99.90;;;;;;5028099;28;20621;-79
2022/08/27 01:23:55;;;;;;;1037.03;948.00;;;23.20;99.90;;;;;;5032493;28;20227;-79
2022/08/27 01:26:25;;;;;;;1035.03;946.08;;;23.20;99.90;;;;;;5029574;28;20275;-79
2022/08/27 01:28:53;;;;;;;1043.75;954.28;;;23.20;99.90;;;;;;5029371;28;20187;-80
2022/08/27 01:31:20;;;;;;;1040.05;950.67;;;23.20;99.90;;;;;;5027355;28;20195;-80
2022/08/27 01:33:55;;;;;;;1047.93;958.30;;;23.20;99.90;;;;;;5032036;28;20551;-80
2022/08/27 01:36:22;;;;;;;1027.32;938.45;;;23.20;99.90;;;;;;5026415;28;20684;-79
2022/08/27 01:38:49;;;;;;;1031.45;942.50;;;23.20;99.90;;;;;;5031258;28;20205;-80
2022/08/27 01:41:16;;;;;;;1037.00;947.60;;;23.10;99.90;;;;;;5029445;28;20196;-81
2022/08/27 01:43:44;;;;;;;1041.95;952.60;;;23.10;99.90;;;;;;5026622;28;20189;-80
2022/08/27 01:46:11;;;;;;;1043.82;954.10;;;23.10;99.90;;;;;;5028949;28;20242;-81
2022/08/27 01:48:37;;;;;;;1035.13;945.85;;;23.10;99.90;;;;;;5029428;28;20200;-81
2022/08/27 01:51:04;;;;;;;1033.72;944.50;;;23.10;99.90;;;;;;5025493;28;20223;-80
2022/08/27 01:53:31;;;;;;;1049.50;960.00;;;23.10;99.90;;;;;;5030706;28;20218;-81
2022/08/27 01:55:58;;;;;;;1039.03;949.72;;;23.10;99.90;;;;;;5028324;28;20572;-80
2022/08/27 01:58:27;;;;;;;1041.65;952.13;;;23.10;99.90;;;;;;5031784;28;20191;-81
2022/08/27 02:01:01;;;;;;;1031.88;942.30;;;23.10;99.90;;;;;;5026500;28;20199;-80
2022/08/27 02:03:28;;;;;;;1034.95;945.92;;;23.00;99.90;;;;;;5029860;28;20221;-80
2022/08/27 02:05:55;;;;;;;1043.50;953.72;;;23.00;99.90;;;;;;5021093;28;20667;-81
2022/08/27 02:08:22;;;;;;;1029.05;940.05;;;23.00;99.90;;;;;;5030473;28;20493;-80
2022/08/27 02:10:50;;;;;;;1026.95;937.97;;;23.00;99.90;;;;;;5029997;28;20204;-80
2022/08/27 02:13:18;;;;;;;1026.07;937.15;;;23.00;99.90;;;;;;5030443;28;20620;-80
2022/08/27 02:15:45;;;;;;;1040.32;951.10;;;23.00;99.90;;;;;;5026747;28;20219;-80
2022/08/27 02:18:13;;;;;;;1042.78;953.35;;;23.00;99.90;;;;;;5030222;28;20203;-80
2022/08/27 02:20:41;;;;;;;1033.05;943.92;;;23.00;99.90;;;;;;5020581;28;20639;-77
2022/08/27 02:23:08;;;;;;;1032.70;943.72;;;23.00;99.90;;;;;;5030649;28;20670;-80
2022/08/27 02:25:35;;;;;;;1027.90;938.67;;;22.90;99.90;;;;;;5028854;28;20224;-80
2022/08/27 02:28:03;;;;;;;1029.07;940.08;;;22.90;99.90;;;;;;5030173;28;20562;-80
2022/08/27 02:30:32;;;;;;;1040.28;950.80;;;22.90;99.90;;;;;;5026982;28;20200;-79
2022/08/27 02:32:59;;;;;;;1032.05;943.05;;;22.90;99.90;;;;;;5030536;28;20187;-81
2022/08/27 02:35:29;;;;;;;1023.58;934.97;;;22.90;99.90;;;;;;5026526;28;20609;-79
2022/08/27 02:37:55;;;;;;;1024.45;935.83;;;22.90;99.90;;;;;;5027657;28;20207;-80
2022/08/27 02:40:24;;;;;;;1024.53;935.72;;;22.90;99.90;;;;;;5029740;28;20195;-80
2022/08/27 02:42:51;;;;;;;1029.57;940.60;;;22.90;99.90;;;;;;5030366;28;20199;-79
2022/08/27 02:45:19;;;;;;;1028.15;938.80;;;22.80;99.90;;;;;;5025494;28;20211;-79
2022/08/27 02:47:47;;;;;;;1031.85;942.63;;;22.80;99.90;;;;;;5029652;28;20200;-79
2022/08/27 02:50:14;;;;;;;1041.47;951.97;;;22.80;99.90;;;;;;5025046;28;20275;-79
2022/08/27 02:52:44;;;;;;;1026.68;937.72;;;22.80;99.90;;;;;;5030283;28;20199;-80
2022/08/27 02:55:11;;;;;;;1027.30;938.30;;;22.80;99.90;;;;;;5028864;28;20219;-80
2022/08/27 02:57:38;;;;;;;1028.28;939.22;;;22.80;99.90;;;;;;5033655;28;20200;-79
2022/08/27 03:00:07;;;;;;;1010.55;922.05;;;22.80;99.90;;;;;;5035500;28;20199;-78
2022/08/27 03:02:33;;;;;;;1026.60;937.70;;;22.80;99.90;;;;;;5035073;28;20245;-77
2022/08/27 03:05:00;;;;;;;1035.28;946.22;;;22.80;99.90;;;;;;5034115;28;21210;-75
2022/08/27 03:07:27;;;;;;;1020.83;931.97;;;22.80;99.90;;;;;;5034775;28;20206;-80
2022/08/27 03:09:55;;;;;;;1014.60;926.17;;;22.70;99.90;;;;;;5033898;28;20211;-77
2022/08/27 03:12:23;;;;;;;1028.63;939.67;;;22.70;99.90;;;;;;5037312;28;20562;-79
2022/08/27 03:14:49;;;;;;;1026.50;937.65;;;22.70;99.90;;;;;;5030706;28;20246;-79
2022/08/27 03:20:02;;;;;;;1022.28;933.70;;;22.70;99.90;;;;;;5033197;28;20314;-79
2022/08/27 03:22:29;;;;;;;1028.18;938.97;;;22.70;99.90;;;;;;5035048;28;20207;-80
2022/08/27 03:24:57;;;;;;;1018.28;929.47;;;22.70;99.90;;;;;;5034223;28;20562;-80
2022/08/27 03:27:24;;;;;;;1036.22;946.92;;;22.70;99.90;;;;;;5035686;28;20196;-79
2022/08/27 03:29:50;;;;;;;1016.20;927.78;;;22.70;99.90;;;;;;5032156;28;20206;-78
2022/08/27 03:32:17;;;;;;;1024.82;935.95;;;22.70;99.90;;;;;;5035161;28;20196;-78
2022/08/27 03:34:44;;;;;;;1026.55;937.72;;;22.60;99.90;;;;;;5034430;28;20220;-78
2022/08/27 03:37:11;;;;;;;1032.22;943.20;;;22.60;99.90;;;;;;5030426;28;20211;-79
2022/08/27 03:39:38;;;;;;;1021.67;933.00;;;22.60;99.90;;;;;;5036570;28;20195;-79
2022/08/27 03:42:06;;;;;;;1033.55;944.33;;;22.60;99.90;;;;;;5030438;28;20202;-77
2022/08/27 03:44:33;;;;;;;1021.97;933.40;;;22.60;99.90;;;;;;5025284;28;20223;-78
2022/08/27 03:47:00;;;;;;;1014.58;926.28;;;22.60;99.90;;;;;;5033345;28;20666;-77
2022/08/27 03:49:27;;;;;;;1013.33;924.75;;;22.60;99.90;;;;;;5036777;28;20196;-80
2022/08/27 03:51:54;;;;;;;1018.58;929.88;;;22.60;99.90;;;;;;5032247;28;20215;-81
2022/08/27 03:54:21;;;;;;;1012.00;923.55;;;22.60;99.90;;;;;;5035445;28;20254;-77
2022/08/27 03:56:48;;;;;;;1010.55;922.13;;;22.50;99.90;;;;;;5035701;28;20203;-79
2022/08/27 03:59:16;;;;;;;1006.53;918.05;;;22.50;99.90;;;;;;5030219;28;20195;-79
2022/08/27 04:01:43;;;;;;;1026.82;937.95;;;22.50;99.90;;;;;;5030900;28;20276;-77
2022/08/27 04:04:11;;;;;;;1003.65;915.35;;;22.50;99.90;;;;;;5035194;28;20196;-79
2022/08/27 04:06:38;;;;;;;1018.45;929.85;;;22.50;99.90;;;;;;5027756;28;20257;-82
2022/08/27 04:09:05;;;;;;;1004.60;916.30;;;22.50;99.90;;;;;;5032823;28;20203;-81
2022/08/27 04:11:34;;;;;;;1018.13;929.38;;;22.50;99.90;;;;;;5033429;28;20227;-81
2022/08/27 04:14:04;;;;;;;1011.42;922.95;;;22.50;99.90;;;;;;5031852;28;20576;-78
2022/08/27 04:16:32;;;;;;;1011.05;922.88;;;22.40;99.90;;;;;;5029499;28;20215;-78
2022/08/27 04:19:00;;;;;;;1000.22;912.20;;;22.40;99.90;;;;;;5033250;28;20226;-77
2022/08/27 04:21:26;;;;;;;1006.90;918.58;;;22.40;99.90;;;;;;5023893;28;20566;-79
2022/08/27 04:23:53;;;;;;;1014.47;925.95;;;22.40;99.90;;;;;;5029520;28;20758;-79
2022/08/27 04:26:20;;;;;;;1005.00;916.83;;;22.40;99.90;;;;;;5032174;28;20206;-80
2022/08/27 04:28:47;;;;;;;1000.75;912.80;;;22.40;99.90;;;;;;5033058;28;20208;-80
2022/08/27 04:31:14;;;;;;;1007.72;919.20;;;22.40;99.90;;;;;;5027473;28;20196;-79
2022/08/27 04:33:42;;;;;;;1006.55;918.10;;;22.40;99.90;;;;;;5032950;28;20191;-80
2022/08/27 04:36:10;;;;;;;1002.05;913.83;;;22.40;99.90;;;;;;5023672;28;20215;-81
2022/08/27 04:38:38;;;;;;;1004.25;916.10;;;22.30;99.90;;;;;;5030356;28;20195;-79
2022/08/27 04:41:21;;;;;;;1021.47;932.65;;;22.40;99.90;;;;;;5033151;28;20195;-79
2022/08/27 04:43:48;;;;;;;1005.03;917.08;;;22.30;99.90;;;;;;5033438;28;20196;-79
2022/08/27 04:46:20;;;;;;;1017.70;929.08;;;22.30;99.90;;;;;;5025317;28;20265;-86
2022/08/27 04:48:48;;;;;;;1016.30;927.80;;;22.30;99.90;;;;;;5029794;28;20203;-83
2022/08/27 04:51:14;;;;;;;1006.45;918.33;;;22.30;99.90;;;;;;5027093;28;20552;-83
2022/08/27 04:53:41;;;;;;;993.67;905.72;;;22.30;99.90;;;;;;5031464;28;20203;-85
2022/08/27 04:56:12;;;;;;;998.08;910.15;;;22.30;99.90;;;;;;5030676;28;20707;-83
2022/08/27 04:58:39;;;;;;;1006.40;918.35;;;22.30;99.90;;;;;;5029438;28;20500;-82
2022/08/27 05:01:06;;;;;;;999.33;910.92;;;22.30;99.90;;;;;;5028755;28;20562;-82
2022/08/27 05:03:33;;;;;;;995.10;907.22;;;22.30;99.90;;;;;;5032813;28;20254;-80
2022/08/27 05:06:03;;;;;;;996.15;908.42;;;22.30;99.90;;;;;;5026836;28;20200;-79
2022/08/27 05:08:31;;;;;;;1001.78;913.78;;;22.20;99.90;;;;;;5031956;28;20566;-82
2022/08/27 05:10:59;;;;;;;1009.25;920.90;;;22.20;99.90;;;;;;5031170;28;20206;-79
2022/08/27 05:13:26;;;;;;;1007.17;918.83;;;22.20;99.90;;;;;;5032124;28;20216;-81
2022/08/27 05:15:58;;;;;;;1006.90;918.67;;;22.20;99.90;;;;;;5025631;28;20211;-76
2022/08/27 05:18:25;;;;;;;1014.10;925.70;;;22.20;99.90;;;;;;5032045;28;20207;-81
2022/08/27 05:20:52;;;;;;;997.88;909.95;;;22.20;99.90;;;;;;5022751;28;20672;-81
2022/08/27 05:23:21;;;;;;;1001.60;913.40;;;22.20;99.90;;;;;;5028923;28;20200;-81
2022/08/27 05:25:49;;;;;;;1010.72;922.33;;;22.20;99.90;;;;;;5028688;28;20206;-81
2022/08/27 05:28:20;;;;;;;988.15;900.58;;;22.20;99.90;;;;;;5026883;28;20203;-80
2022/08/27 05:30:48;;;;;;;1001.05;912.75;;;22.20;99.90;;;;;;5025099;28;20294;-80
2022/08/27 05:33:18;;;;;;;1003.85;915.67;;;22.10;99.90;;;;;;5031609;28;20192;-80
2022/08/27 05:35:47;;;;;;;1008.13;919.63;;;22.20;99.90;;;;;;5021830;28;20220;-79
2022/08/27 05:38:14;;;;;;;989.28;901.40;;;22.10;99.90;;;;;;5031322;28;20206;-79
2022/08/27 05:40:43;;;;;;;992.13;903.97;;;22.10;99.90;;;;;;5031753;28;20227;-81
2022/08/27 05:43:11;;;;;;;1007.70;919.40;;;22.10;99.90;;;;;;5028385;28;20257;-78
2022/08/27 05:45:41;;;;;;;993.05;904.97;;;22.10;99.90;;;;;;5025553;28;20567;-80
2022/08/27 05:48:10;;;;;;;990.38;902.70;;;22.10;99.90;;;;;;5029115;28;20548;-80
2022/08/27 05:50:37;;;;;;;997.15;909.33;;;22.10;99.90;;;;;;5014744;28;20208;-80
2022/08/27 05:53:04;;;;;;;1000.92;912.97;;;22.10;99.90;;;;;;5029909;28;20203;-79
2022/08/27 05:55:36;;;;;;;1011.15;922.60;;;22.10;99.90;;;;;;5029134;28;20215;-81
2022/08/27 05:58:05;;;;;;;997.33;909.33;;;22.10;99.90;;;;;;5024156;28;20207;-81
2022/08/27 06:03:15;;;;;;;1000.50;912.75;;;22.10;99.90;;;;;;5027965;28;20591;-77
2022/08/27 06:05:42;;;;;;;994.20;906.53;;;22.10;99.90;;;;;;5020162;28;20195;-77
2022/08/27 06:08:09;;;;;;;989.80;901.95;;;22.10;99.90;;;;;;5029906;28;20536;-80
2022/08/27 06:10:39;;;;;;;1003.42;915.35;;;22.10;99.90;;;;;;5030402;28;20211;-79
2022/08/27 06:13:08;;;;;;;995.90;907.75;;;22.00;99.90;;;;;;5025829;28;20214;-79
2022/08/27 06:15:35;;;;;;;996.35;908.22;;;22.00;99.90;;;;;;5025104;28;20207;-76
2022/08/27 06:18:04;;;;;;;997.03;909.13;;;22.00;99.90;;;;;;5030778;28;20578;-78
2022/08/27 06:20:30;;;;;;;985.75;898.35;;;22.10;99.90;;;;;;5024616;28;20302;-78
2022/08/27 06:22:57;;;;;;;1008.58;920.28;;;22.00;99.90;;;;;;5028211;28;20199;-80
2022/08/27 06:25:24;;;;;;;995.35;907.30;;;22.00;99.90;;;;;;5030083;28;20594;-80
2022/08/27 06:27:50;;;;;;;988.05;900.55;;;22.00;99.90;;;;;;5028078;28;20195;-80
2022/08/27 06:30:19;;;;;;;1001.17;913.03;;;22.00;99.90;;;;;;5026165;28;20196;-79
2022/08/27 06:32:45;;;;;;;987.80;900.05;;;22.00;99.90;;;;;;5026770;28;20195;-80
2022/08/27 06:35:12;;;;;;;999.35;911.15;;;22.00;99.90;;;;;;5025059;28;20208;-81
2022/08/27 06:37:39;;;;;;;993.13;905.33;;;22.00;99.90;;;;;;5024865;28;20196;-77
2022/08/27 06:40:07;;;;;;;1008.03;919.70;;;22.00;99.90;;;;;;5015383;28;20650;-77
2022/08/27 06:42:33;;;;;;;988.55;900.80;;;22.00;99.90;;;;;;5030821;28;20243;-78
2022/08/27 06:45:00;;;;;;;1001.22;913.03;;;22.00;99.90;;;;;;5026825;28;20200;-78
2022/08/27 06:47:30;;;;;;;1005.97;917.70;;;22.00;99.90;;;;;;5027859;28;20200;-78
2022/08/27 06:49:57;;;;;;;997.40;909.33;;;22.00;99.90;;;;;;5024995;28;20214;-77
2022/08/27 06:52:24;;;;;;;996.00;907.92;;;22.00;99.90;;;;;;5024196;28;20246;-78
2022/08/27 06:54:51;;;;;;;994.30;906.22;;;22.00;99.90;;;;;;5028147;28;20558;-78
2022/08/27 06:57:17;;;;;;;999.90;911.97;;;22.00;99.90;;;;;;5027133;28;20220;-78
2022/08/27 06:59:44;;;;;;;1003.45;915.28;;;22.00;99.90;;;;;;5028134;28;20203;-79
2022/08/27 07:02:11;;;;;;;995.50;907.90;;;22.00;99.90;;;;;;5027215;28;20204;-80
2022/08/27 07:04:39;;;;;;;1008.15;920.15;;;22.00;99.90;;;;;;5027076;28;20191;-80
2022/08/27 07:07:06;;;;;;;994.90;907.00;;;22.00;99.90;;;;;;5026321;28;20226;-80
2022/08/27 07:09:34;;;;;;;992.08;904.55;;;22.00;99.90;;;;;;5027752;28;20204;-80
2022/08/27 07:12:01;;;;;;;986.40;898.60;;;22.00;99.90;;;;;;5030102;28;20195;-80
2022/08/27 07:14:27;;;;;;;985.75;898.38;;;22.00;99.90;;;;;;5027554;28;20638;-79
2022/08/27 07:16:55;;;;;;;996.33;908.35;;;22.10;99.90;;;;;;5028648;28;20230;-80
2022/08/27 07:19:22;;;;;;;996.38;908.33;;;22.10;99.90;;;;;;5029545;28;20254;-80
2022/08/27 07:21:50;;;;;;;996.70;908.95;;;22.10;99.90;;;;;;5025577;28;20643;-80
2022/08/27 07:24:18;;;;;;;987.33;899.88;;;22.10;99.90;;;;;;5030777;28;20195;-80
2022/08/27 07:26:45;;;;;;;998.42;910.72;;;22.10;99.90;;;;;;5027227;28;20203;-81
2022/08/27 07:29:14;;;;;;;994.05;906.28;;;22.10;99.90;;;;;;5029120;28;20200;-82
2022/08/27 07:31:42;;;;;;;993.45;905.75;;;22.10;99.90;;;;;;5027719;28;20204;-82
2022/08/27 07:34:09;;;;;;;1000.55;912.72;;;22.10;99.90;;;;;;5030441;28;20622;-83
2022/08/27 07:36:37;;;;;;;997.53;909.95;;;22.20;99.90;;;;;;5026086;28;20212;-81
2022/08/27 07:39:06;;;;;;;995.20;907.28;;;22.20;99.90;;;;;;5028880;28;20204;-81
2022/08/27 07:44:23;;;;;;;994.53;906.45;;;22.20;99.90;;;;;;5028797;28;20196;-82
2022/08/27 07:44:26;;;;;;;997.20;909.20;;;22.20;99.90;;;;;;5019161;28;20282;-78
2022/08/27 07:46:56;;;;;;;988.00;900.63;;;22.20;99.90;;;;;;5032199;28;20282;-78
2022/08/27 07:49:27;;;;;;;998.63;910.72;;;22.20;99.90;;;;;;5033826;28;20200;-77
2022/08/27 07:51:53;;;;;;;993.80;906.15;;;22.20;99.90;;;;;;5022617;28;20215;-79
2022/08/27 07:54:23;;;;;;;1001.03;913.08;;;22.20;99.90;;;;;;5031639;28;20666;-78
2022/08/27 07:56:50;;;;;;;1003.33;915.28;;;22.20;99.90;;;;;;5025679;28;20223;-78
2022/08/27 07:59:17;;;;;;;989.15;901.88;;;22.20;99.90;;;;;;5030461;28;20195;-80
2022/08/27 08:01:43;;;;;;;1004.08;916.25;;;22.20;99.90;;;;;;5030289;28;20565;-80
2022/08/27 08:04:10;;;;;;;1005.17;917.00;;;22.20;99.90;;;;;;5035068;28;20678;-85
2022/08/27 08:06:39;;;;;;;1007.78;919.63;;;22.30;99.90;;;;;;5030769;28;20206;-85
2022/08/27 08:09:06;;;;;;;998.45;910.42;;;22.30;99.90;;;;;;5032283;28;20654;-87
2022/08/27 08:11:34;;;;;;;1006.35;918.33;;;22.30;99.90;;;;;;5032674;28;20199;-86
2022/08/27 08:14:01;;;;;;;1006.97;918.90;;;22.30;99.90;;;;;;5033094;28;20196;-86
2022/08/27 08:16:28;;;;;;;993.83;906.22;;;22.30;99.90;;;;;;5027097;28;20220;-87
2022/08/27 08:18:55;;;;;;;996.97;909.00;;;22.30;99.90;;;;;;5032302;28;20643;-86
2022/08/27 08:21:22;;;;;;;1006.75;918.80;;;22.30;99.90;;;;;;5029556;28;20542;-87
2022/08/27 08:23:49;;;;;;;1007.08;918.92;;;22.30;99.90;;;;;;5029750;28;20188;-85
2022/08/27 08:26:16;;;;;;;1001.10;913.17;;;22.30;99.90;;;;;;5030111;28;20207;-87
2022/08/27 08:28:45;;;;;;;999.25;911.35;;;22.30;99.90;;;;;;5029680;28;20188;-87
2022/08/27 08:31:12;;;;;;;1004.13;916.15;;;22.30;99.90;;;;;;5032340;28;20254;-86
2022/08/27 08:33:39;;;;;;;1012.33;924.00;;;22.30;99.90;;;;;;5032435;28;20196;-86
2022/08/27 08:36:08;;;;;;;999.42;911.25;;;22.30;99.90;;;;;;5024692;28;20199;-86
2022/08/27 08:38:35;;;;;;;991.88;904.20;;;22.30;99.90;;;;;;5028732;28;20200;-79
2022/08/27 08:41:02;;;;;;;997.28;909.35;;;22.30;99.90;;;;;;5033161;28;20192;-79
2022/08/27 08:43:33;;;;;;;996.97;909.10;;;22.30;99.90;;;;;;5030450;28;20196;-79
2022/08/27 08:46:11;;;;;;;1000.05;912.28;;;22.40;99.90;;;;;;5027778;28;20206;-80
2022/08/27 08:48:42;;;;;;;1010.25;921.88;;;22.30;99.90;;;;;;5029455;28;20566;-82
2022/08/27 08:51:17;;;;;;;1009.92;921.65;;;22.40;99.90;;;;;;5024977;28;20581;-83
2022/08/27 08:53:51;;;;;;;991.05;903.53;;;22.40;99.90;;;;;;5030516;28;20563;-79
2022/08/27 08:56:25;;;;;;;998.33;910.53;;;22.40;99.90;;;;;;5030621;28;20298;-82
2022/08/27 08:58:57;;;;;;;1001.92;914.10;;;22.40;99.90;;;;;;5024038;28;20563;-80
2022/08/27 09:01:27;;;;;;;1006.17;918.22;;;22.40;99.90;;;;;;5026953;28;20202;-82
2022/08/27 09:03:57;;;;;;;1004.08;916.10;;;22.40;99.90;;;;;;5024376;28;20582;-82
2022/08/27 09:06:36;;;;;;;1009.97;921.85;;;22.40;99.90;;;;;;5023788;28;20203;-81
2022/08/27 09:09:13;;;;;;;991.28;903.58;;;22.40;99.90;;;;;;5019873;28;20192;-81
2022/08/27 09:11:44;;;;;;;989.53;902.22;;;22.40;99.90;;;;;;5028254;28;20234;-82
2022/08/27 09:14:26;;;;;;;993.53;905.97;;;22.40;99.90;;;;;;5031505;28;20611;-82
2022/08/27 09:16:55;;;;;;;995.30;907.63;;;22.40;99.90;;;;;;5031320;28;20215;-80
2022/08/27 09:19:21;;;;;;;999.80;911.78;;;22.40;99.90;;;;;;5029128;28;20208;-81
2022/08/27 09:21:56;;;;;;;1011.88;923.05;;;22.40;99.90;;;;;;5021209;28;20424;-83
2022/08/27 09:24:30;;;;;;;992.03;904.35;;;22.40;99.90;;;;;;5031117;28;20198;-82
2022/08/27 09:26:57;;;;;;;997.35;909.65;;;22.40;99.90;;;;;;5022321;28;20204;-81
2022/08/27 09:29:26;;;;;;;1006.65;918.75;;;22.40;99.90;;;;;;5028012;28;20200;-81
2022/08/27 09:31:57;;;;;;;1007.08;919.30;;;22.40;99.90;;;;;;5028216;28;20219;-82
2022/08/27 09:34:26;;;;;;;997.03;909.33;;;22.50;99.90;;;;;;5027223;28;20563;-82
2022/08/27 09:37:00;;;;;;;1005.42;917.45;;;22.50;99.90;;;;;;5023158;28;20227;-81
2022/08/27 09:39:33;;;;;;;1011.13;922.78;;;22.50;99.90;;;;;;5032285;28;20566;-82
2022/08/27 09:42:02;;;;;;;1002.13;914.20;;;22.50;99.90;;;;;;5023790;28;20212;-79
2022/08/27 09:44:31;;;;;;;1000.67;912.92;;;22.50;99.90;;;;;;5021476;28;20207;-82
2022/08/27 09:47:02;;;;;;;1005.38;917.45;;;22.50;99.90;;;;;;5029002;28;20199;-80
2022/08/27 09:49:33;;;;;;;1002.38;914.65;;;22.50;99.90;;;;;;5028498;28;20195;-82
2022/08/27 09:52:00;;;;;;;1010.95;922.63;;;22.50;99.90;;;;;;5021984;28;20713;-82
2022/08/27 09:54:34;;;;;;;1007.17;919.10;;;22.50;99.90;;;;;;5031265;28;20215;-83
2022/08/27 09:57:01;;;;;;;1000.97;913.15;;;22.50;99.90;;;;;;5023021;28;20250;-79
2022/08/27 09:59:33;;;;;;;997.90;910.28;;;22.50;99.90;;;;;;5026490;28;20582;-82
2022/08/27 10:02:12;;;;;;;1004.40;916.30;;;22.50;99.90;;;;;;5028008;28;20206;-83
2022/08/27 10:04:41;;;;;;;1020.25;931.67;;;22.50;99.90;;;;;;5029892;28;20206;-82
2022/08/27 10:07:30;;;;;;;1005.83;917.95;;;22.50;99.90;;;;;;5025935;28;20203;-81
2022/08/27 10:10:03;;;;;;;995.40;907.78;;;22.50;99.90;;;;;;5030689;28;20212;-82
2022/08/27 10:12:38;;;;;;;1001.55;913.97;;;22.50;99.90;;;;;;5022630;28;20197;-81
2022/08/27 10:15:06;;;;;;;995.95;908.28;;;22.50;99.90;;;;;;5026614;28;20191;-82
2022/08/27 10:17:50;;;;;;;1017.75;929.28;;;22.50;99.90;;;;;;5029626;28;20222;-82
2022/08/27 10:20:24;;;;;;;1003.13;915.40;;;22.50;99.90;;;;;;5024963;28;20200;-80
2022/08/27 10:23:04;;;;;;;998.40;910.53;;;22.50;99.90;;;;;;5025007;28;20740;-81
2022/08/27 10:25:40;;;;;;;1012.65;924.25;;;22.50;99.90;;;;;;5027220;28;20231;-81
2022/08/27 10:28:18;;;;;;;1001.45;913.58;;;22.60;99.90;;;;;;5020121;28;20203;-81
2022/08/27 10:31:01;;;;;;;998.03;910.30;;;22.60;99.90;;;;;;5019962;28;20195;-81
2022/08/27 10:33:39;;;;;;;1020.40;931.83;;;22.60;99.90;;;;;;5023215;28;20198;-82
2022/08/27 10:36:21;;;;;;;1013.08;924.70;;;22.70;99.90;;;;;;5015098;28;20200;-82
2022/08/27 10:38:55;;;;;;;1021.53;933.03;;;22.70;99.90;;;;;;5024172;28;20635;-82
2022/08/27 10:41:26;;;;;;;1016.40;927.85;;;22.70;99.90;;;;;;5030347;28;20204;-79
2022/08/27 10:44:15;;;;;;;1002.85;914.80;;;22.80;99.90;;;;;;5030403;28;20558;-80
2022/08/27 10:47:03;;;;;;;1033.25;944.17;;;22.80;99.90;;;;;;5022962;28;20211;-78
2022/08/27 10:49:42;;;;;;;1023.58;934.97;;;22.80;99.90;;;;;;5025295;28;20234;-80
2022/08/27 10:52:17;;;;;;;1009.47;921.20;;;22.80;99.90;;;;;;5023060;28;20222;-79
2022/08/27 10:54:49;;;;;;;1028.78;939.88;;;22.80;99.90;;;;;;5028912;28;20274;-81
2022/08/27 10:57:22;;;;;;;1017.10;928.55;;;22.80;99.90;;;;;;5026897;28;20216;-81
2022/08/27 10:59:57;;;;;;;1030.75;941.83;;;22.80;99.90;;;;;;5026709;28;20204;-79
2022/08/27 11:02:34;;;;;;;1025.28;936.58;;;22.70;99.90;;;;;;5027146;28;20561;-78
2022/08/27 11:05:14;;;;;;;1014.45;926.03;;;22.70;99.90;;;;;;5026441;28;20206;-79
2022/08/27 11:07:46;;;;;;;1018.80;930.33;;;22.70;99.90;;;;;;5022257;28;20202;-77
2022/08/27 11:10:19;;;;;;;1029.40;940.70;;;22.70;99.90;;;;;;5029192;28;20659;-79
2022/08/27 11:12:49;;;;;;;1013.90;925.30;;;22.70;99.90;;;;;;5023909;28;20202;-78
2022/08/27 11:15:20;;;;;;;994.83;907.30;;;22.70;99.90;;;;;;5017542;28;20203;-78
2022/08/27 11:17:53;;;;;;;999.83;912.25;;;22.60;99.90;;;;;;5024684;28;20198;-75
2022/08/27 11:20:27;;;;;;;1003.95;915.92;;;22.60;99.90;;;;;;5028840;28;20200;-79
2022/08/27 11:22:58;;;;;;;1010.97;922.63;;;22.60;99.90;;;;;;5026743;28;20191;-77
2022/08/27 11:25:40;;;;;;;996.90;909.35;;;22.60;99.90;;;;;;5041911;28;20199;-80
2022/08/27 11:28:10;;;;;;;1011.33;923.13;;;22.60;99.90;;;;;;5025899;28;20200;-79
2022/08/27 11:30:45;;;;;;;999.92;912.10;;;22.60;99.90;;;;;;5026218;28;20203;-80
2022/08/27 11:33:18;;;;;;;1005.97;918.00;;;22.60;99.90;;;;;;5029433;28;20200;-79
2022/08/27 11:36:09;;;;;;;993.95;906.40;;;22.60;99.90;;;;;;5018726;28;20201;-79
2022/08/27 11:38:54;;;;;;;1008.22;920.17;;;22.60;99.90;;;;;;5030080;28;20226;-80
2022/08/27 11:41:45;;;;;;;1007.83;919.67;;;22.60;99.90;;;;;;5024460;28;20208;-84
2022/08/27 11:44:13;;;;;;;1001.90;914.00;;;22.60;99.90;;;;;;5022525;28;20200;-82
2022/08/27 11:46:44;;;;;;;1010.42;922.22;;;22.70;99.90;;;;;;5030275;28;20508;-84
2022/08/27 11:49:21;;;;;;;1013.40;925.25;;;22.70;99.90;;;;;;5026312;28;20658;-80
2022/08/27 11:51:58;;;;;;;1018.38;929.50;;;22.70;99.90;;;;;;5027563;28;20219;-82
2022/08/27 11:54:28;;;;;;;1029.38;940.50;;;22.70;99.90;;;;;;5031589;28;20192;-80
2022/08/27 11:56:55;;;;;;;1027.57;939.20;;;22.80;99.90;;;;;;5030019;28;20566;-85
2022/08/27 11:59:28;;;;;;;1026.78;938.05;;;22.90;99.90;;;;;;5032809;28;20196;-85
2022/08/27 12:01:58;;;;;;;1020.55;931.92;;;22.90;99.90;;;;;;5039941;28;20661;-87
2022/08/27 12:04:35;;;;;;;1012.65;924.33;;;22.90;99.90;;;;;;5032159;28;20270;-87
2022/08/27 12:07:05;;;;;;;1029.18;940.28;;;22.90;99.90;;;;;;5028099;28;20211;-85
2022/08/27 12:09:53;;;;;;;1024.68;935.70;;;22.90;99.90;;;;;;5026896;28;20193;-82
2022/08/27 12:12:25;;;;;;;1016.67;928.03;;;23.00;99.90;;;;;;5022067;28;20196;-83
2022/08/27 12:14:59;;;;;;;1013.83;925.67;;;23.00;99.90;;;;;;5028821;28;20666;-84
2022/08/27 12:17:34;;;;;;;1025.63;936.92;;;23.00;99.90;;;;;;5031033;28;20222;-82
2022/08/27 12:20:12;;;;;;;1017.67;929.28;;;23.00;99.90;;;;;;5030741;28;20199;-82